Terminal Aerodrome Forecast
Issued by NWS Wilmington, OH

Current Version | Previous Version | Graphics & Text | Print | Product List | Glossary On
Versions: 1 2 3 4 5 6 7 8 9 10 11 12 13 14 15 16
532
FTUS41 KILN 220539
TAFCMH
TAF
KCMH 220539Z 2206/2306 15004KT P6SM VCSH BKN080 OVC120
      TEMPO 2206/2207 -SHRA
     FM220800 10003KT P6SM SCT080 OVC140
     FM221700 08008KT P6SM OVC060
     FM222200 06010KT 3SM -SHRA BR OVC012=

USA.gov is the U.S. government's official web portal to all federal, state and local government web resources and services.